Kentucky Observed Data For Previous 48 Hours

Caption
Day and Hour Reservoir Elevation (behind dam)* Tailwater Elevation (below dam)* Average Hourly Discharge*
5/19/2018 1 AM CDT 359.39 305.69 29,485
5/19/2018 2 AM CDT 359.44 305.64 29,076
5/19/2018 3 AM CDT 359.50 305.67 29,016
5/19/2018 4 AM CDT 359.49 305.65 28,993
5/19/2018 5 AM CDT 359.51 305.77 29,069
5/19/2018 6 AM CDT 359.52 305.76 29,027
5/19/2018 7 AM CDT 359.52 305.77 29,073
5/19/2018 8 AM CDT 359.55 305.74 29,109
5/19/2018 9 AM CDT 359.56 305.77 29,076
5/19/2018 10 AM CDT 359.60 305.76 29,265
5/19/2018 11 AM CDT 359.58 306.08 37,092
5/19/2018 12 PM CDT 359.52 307.00 58,004
5/19/2018 1 PM CDT 359.49 307.23 59,345
5/19/2018 2 PM CDT 359.46 307.05 59,341
5/19/2018 3 PM CDT 359.43 307.16 59,522
5/19/2018 4 PM CDT 359.40 307.26 59,934
5/19/2018 5 PM CDT 359.38 307.37 60,241
5/19/2018 6 PM CDT 359.38 307.49 60,432
5/19/2018 7 PM CDT 359.30 307.92 60,846
5/19/2018 8 PM CDT 359.49 307.76 60,769
5/19/2018 9 PM CDT 359.39 307.94 61,152
5/19/2018 10 PM CDT 359.44 308.06 61,296
5/19/2018 11 PM CDT 359.37 308.11 61,568
5/20/2018 12 AM CDT 359.37 308.31 62,025
5/20/2018 1 AM CDT 359.34 308.39 62,394
5/20/2018 2 AM CDT 359.37 308.45 62,190
5/20/2018 3 AM CDT 359.40 308.48 62,264
5/20/2018 4 AM CDT 359.44 308.41 61,995
5/20/2018 5 AM CDT 359.44 308.52 61,893
5/20/2018 6 AM CDT 359.46 308.59 62,100
5/20/2018 7 AM CDT 359.42 308.66 62,238
5/20/2018 8 AM CDT 359.35 308.64 62,308
5/20/2018 9 AM CDT 359.38 308.65 62,351
5/20/2018 10 AM CDT 359.38 308.70 62,070
5/20/2018 11 AM CDT 359.38 308.75 62,125
5/20/2018 12 PM CDT 359.36 308.89 62,104
5/20/2018 1 PM CDT 359.33 308.72 61,957
5/20/2018 2 PM CDT 359.31 309.00 62,256
5/20/2018 3 PM CDT 359.27 309.00 62,414
5/20/2018 4 PM CDT 359.25 309.02 62,622
5/20/2018 5 PM CDT 359.20 309.17 62,608
5/20/2018 6 PM CDT 359.12 309.19 62,610
5/20/2018 7 PM CDT 359.08 309.33 62,641
5/20/2018 8 PM CDT 359.14 309.25 62,637
5/20/2018 9 PM CDT 359.30 309.18 61,936
5/20/2018 10 PM CDT 359.29 309.31 62,210
5/20/2018 11 PM CDT 359.20 309.54 62,269
5/21/2018 12 AM CDT 359.36 308.35 29,912
5/21/2018 1 AM CDT 359.40 308.16 28,608
5/21/2018 2 AM CDT 359.33 308.54 28,714
5/21/2018 3 AM CDT 359.27 308.53 28,799
5/21/2018 4 AM CDT 359.30 308.36 28,786
5/21/2018 5 AM CDT 359.31 308.28 28,755
5/21/2018 6 AM CDT 359.28 308.19 28,785
5/21/2018 7 AM CDT 359.28 308.17 28,773
5/21/2018 8 AM CDT 359.28 308.12 28,742
5/21/2018 9 AM CDT 359.29 308.17 28,803
5/21/2018 10 AM CDT 359.20 308.71 37,218
5/21/2018 11 AM CDT 359.18 309.35 62,143
5/21/2018 12 PM CDT 359.20 309.18 62,471
5/21/2018 1 PM CDT 359.23 309.11 61,843
5/21/2018 2 PM CDT 359.24 309.14 61,912

Elevations are in feet above sea level. Discharges are in cubic feet per second and are reported at the end of the hour.